sensor_id;sensor_type;location;lat;lon;timestamp;P1;durP1;ratioP1;P2;durP2;ratioP2
30247;SDS011;17063;50.892;4.702;2023-03-11T00:01:49;15.30;;;7.77;;
30247;SDS011;17063;50.892;4.702;2023-03-11T00:04:17;14.60;;;6.90;;
30247;SDS011;17063;50.892;4.702;2023-03-11T00:06:50;12.98;;;4.80;;
30247;SDS011;17063;50.892;4.702;2023-03-11T00:09:17;17.80;;;5.00;;
30247;SDS011;17063;50.892;4.702;2023-03-11T00:11:43;13.77;;;4.50;;
30247;SDS011;17063;50.892;4.702;2023-03-11T00:14:10;13.25;;;4.07;;
30247;SDS011;17063;50.892;4.702;2023-03-11T00:16:37;11.60;;;3.00;;
30247;SDS011;17063;50.892;4.702;2023-03-11T00:19:09;10.18;;;2.90;;
30247;SDS011;17063;50.892;4.702;2023-03-11T00:21:36;7.32;;;2.88;;
30247;SDS011;17063;50.892;4.702;2023-03-11T00:24:03;6.78;;;2.55;;
30247;SDS011;17063;50.892;4.702;2023-03-11T00:26:30;8.80;;;2.35;;
30247;SDS011;17063;50.892;4.702;2023-03-11T00:28:57;7.68;;;2.03;;
30247;SDS011;17063;50.892;4.702;2023-03-11T00:31:24;8.32;;;2.53;;
30247;SDS011;17063;50.892;4.702;2023-03-11T00:33:57;7.55;;;1.77;;
30247;SDS011;17063;50.892;4.702;2023-03-11T00:36:30;3.83;;;2.30;;
30247;SDS011;17063;50.892;4.702;2023-03-11T00:38:59;7.97;;;2.00;;
30247;SDS011;17063;50.892;4.702;2023-03-11T00:41:27;7.43;;;1.50;;
30247;SDS011;17063;50.892;4.702;2023-03-11T00:43:54;9.63;;;3.05;;
30247;SDS011;17063;50.892;4.702;2023-03-11T00:46:21;7.85;;;1.70;;
30247;SDS011;17063;50.892;4.702;2023-03-11T00:48:51;6.72;;;1.70;;
30247;SDS011;17063;50.892;4.702;2023-03-11T00:51:18;10.80;;;1.90;;
30247;SDS011;17063;50.892;4.702;2023-03-11T00:53:45;6.00;;;1.70;;
30247;SDS011;17063;50.892;4.702;2023-03-11T00:56:13;8.82;;;2.00;;
30247;SDS011;17063;50.892;4.702;2023-03-11T00:58:42;4.22;;;1.40;;
30247;SDS011;17063;50.892;4.702;2023-03-11T01:01:11;6.90;;;1.95;;
30247;SDS011;17063;50.892;4.702;2023-03-11T01:03:39;7.50;;;1.92;;
30247;SDS011;17063;50.892;4.702;2023-03-11T01:06:06;9.55;;;2.40;;
30247;SDS011;17063;50.892;4.702;2023-03-11T01:08:33;5.63;;;2.05;;
30247;SDS011;17063;50.892;4.702;2023-03-11T01:11:01;7.13;;;2.22;;
30247;SDS011;17063;50.892;4.702;2023-03-11T01:13:29;6.40;;;1.73;;
30247;SDS011;17063;50.892;4.702;2023-03-11T01:15:56;4.70;;;2.00;;
30247;SDS011;17063;50.892;4.702;2023-03-11T01:18:24;6.45;;;1.92;;
30247;SDS011;17063;50.892;4.702;2023-03-11T01:20:52;8.73;;;2.28;;
30247;SDS011;17063;50.892;4.702;2023-03-11T01:23:19;9.48;;;2.28;;
30247;SDS011;17063;50.892;4.702;2023-03-11T01:25:47;7.10;;;1.85;;
30247;SDS011;17063;50.892;4.702;2023-03-11T01:28:14;8.88;;;1.83;;
30247;SDS011;17063;50.892;4.702;2023-03-11T01:30:41;8.90;;;1.80;;
30247;SDS011;17063;50.892;4.702;2023-03-11T01:33:12;7.45;;;1.75;;
30247;SDS011;17063;50.892;4.702;2023-03-11T01:35:42;12.13;;;2.33;;
30247;SDS011;17063;50.892;4.702;2023-03-11T01:38:10;16.40;;;2.78;;
30247;SDS011;17063;50.892;4.702;2023-03-11T01:40:42;4.20;;;1.70;;
30247;SDS011;17063;50.892;4.702;2023-03-11T01:46:38;7.80;;;1.77;;
30247;SDS011;17063;50.892;4.702;2023-03-11T01:49:33;3.50;;;1.63;;
30247;SDS011;17063;50.892;4.702;2023-03-11T01:52:01;10.45;;;1.90;;
30247;SDS011;17063;50.892;4.702;2023-03-11T01:54:30;6.57;;;1.67;;
30247;SDS011;17063;50.892;4.702;2023-03-11T01:56:57;11.48;;;2.03;;
30247;SDS011;17063;50.892;4.702;2023-03-11T01:59:26;4.47;;;1.73;;
30247;SDS011;17063;50.892;4.702;2023-03-11T02:04:35;4.70;;;1.80;;
30247;SDS011;17063;50.892;4.702;2023-03-11T02:07:03;6.20;;;1.60;;
30247;SDS011;17063;50.892;4.702;2023-03-11T02:09:30;8.52;;;1.73;;
30247;SDS011;17063;50.892;4.702;2023-03-11T02:11:57;10.18;;;1.80;;
30247;SDS011;17063;50.892;4.702;2023-03-11T02:14:24;7.22;;;2.17;;
30247;SDS011;17063;50.892;4.702;2023-03-11T02:16:54;6.72;;;1.60;;
30247;SDS011;17063;50.892;4.702;2023-03-11T02:19:25;11.57;;;1.73;;
30247;SDS011;17063;50.892;4.702;2023-03-11T02:21:56;5.93;;;1.63;;
30247;SDS011;17063;50.892;4.702;2023-03-11T02:24:26;4.90;;;1.55;;
30247;SDS011;17063;50.892;4.702;2023-03-11T02:27:08;4.25;;;1.70;;
30247;SDS011;17063;50.892;4.702;2023-03-11T02:29:37;7.07;;;1.80;;
30247;SDS011;17063;50.892;4.702;2023-03-11T02:32:05;8.23;;;1.90;;
30247;SDS011;17063;50.892;4.702;2023-03-11T02:34:35;7.80;;;1.58;;
30247;SDS011;17063;50.892;4.702;2023-03-11T02:37:05;4.00;;;1.60;;
30247;SDS011;17063;50.892;4.702;2023-03-11T02:39:43;3.90;;;1.60;;
30247;SDS011;17063;50.892;4.702;2023-03-11T02:42:18;5.90;;;1.50;;
30247;SDS011;17063;50.892;4.702;2023-03-11T02:44:53;2.50;;;1.57;;
30247;SDS011;17063;50.892;4.702;2023-03-11T02:47:26;5.70;;;1.95;;
30247;SDS011;17063;50.892;4.702;2023-03-11T02:49:53;8.43;;;1.97;;
30247;SDS011;17063;50.892;4.702;2023-03-11T02:52:26;4.80;;;1.83;;
30247;SDS011;17063;50.892;4.702;2023-03-11T02:54:54;4.20;;;1.42;;
30247;SDS011;17063;50.892;4.702;2023-03-11T02:57:20;7.97;;;1.73;;
30247;SDS011;17063;50.892;4.702;2023-03-11T02:59:47;7.03;;;1.50;;
30247;SDS011;17063;50.892;4.702;2023-03-11T03:02:14;9.05;;;1.70;;
30247;SDS011;17063;50.892;4.702;2023-03-11T03:04:41;5.38;;;1.48;;
30247;SDS011;17063;50.892;4.702;2023-03-11T03:07:08;3.78;;;1.42;;
30247;SDS011;17063;50.892;4.702;2023-03-11T03:09:35;3.05;;;1.42;;
30247;SDS011;17063;50.892;4.702;2023-03-11T03:12:03;12.10;;;2.28;;
30247;SDS011;17063;50.892;4.702;2023-03-11T03:14:32;4.85;;;1.42;;
30247;SDS011;17063;50.892;4.702;2023-03-11T03:16:59;11.90;;;2.97;;
30247;SDS011;17063;50.892;4.702;2023-03-11T03:19:26;4.30;;;1.50;;
30247;SDS011;17063;50.892;4.702;2023-03-11T03:21:53;6.43;;;1.65;;
30247;SDS011;17063;50.892;4.702;2023-03-11T03:24:21;9.70;;;1.92;;
30247;SDS011;17063;50.892;4.702;2023-03-11T03:26:48;5.35;;;1.80;;
30247;SDS011;17063;50.892;4.702;2023-03-11T03:29:15;7.47;;;1.75;;
30247;SDS011;17063;50.892;4.702;2023-03-11T03:31:43;6.32;;;1.80;;
30247;SDS011;17063;50.892;4.702;2023-03-11T03:34:11;5.80;;;1.73;;
30247;SDS011;17063;50.892;4.702;2023-03-11T03:36:38;6.70;;;1.65;;
30247;SDS011;17063;50.892;4.702;2023-03-11T03:39:06;6.40;;;2.13;;
30247;SDS011;17063;50.892;4.702;2023-03-11T03:41:35;3.70;;;1.70;;
30247;SDS011;17063;50.892;4.702;2023-03-11T03:44:03;5.90;;;1.90;;
30247;SDS011;17063;50.892;4.702;2023-03-11T03:46:32;1.55;;;1.42;;
30247;SDS011;17063;50.892;4.702;2023-03-11T03:48:59;11.25;;;2.13;;
30247;SDS011;17063;50.892;4.702;2023-03-11T03:51:27;11.38;;;2.30;;
30247;SDS011;17063;50.892;4.702;2023-03-11T03:54:03;7.25;;;1.73;;
30247;SDS011;17063;50.892;4.702;2023-03-11T03:56:30;8.93;;;2.60;;
30247;SDS011;17063;50.892;4.702;2023-03-11T03:58:57;7.05;;;1.60;;
30247;SDS011;17063;50.892;4.702;2023-03-11T04:01:30;5.10;;;1.70;;
30247;SDS011;17063;50.892;4.702;2023-03-11T04:03:58;4.60;;;2.03;;
30247;SDS011;17063;50.892;4.702;2023-03-11T04:06:25;7.80;;;2.30;;
30247;SDS011;17063;50.892;4.702;2023-03-11T04:08:57;9.00;;;2.00;;
30247;SDS011;17063;50.892;4.702;2023-03-11T04:11:28;5.05;;;2.17;;
30247;SDS011;17063;50.892;4.702;2023-03-11T04:13:55;7.15;;;2.40;;
30247;SDS011;17063;50.892;4.702;2023-03-11T04:16:23;12.18;;;2.47;;
30247;SDS011;17063;50.892;4.702;2023-03-11T04:18:57;14.00;;;2.30;;
30247;SDS011;17063;50.892;4.702;2023-03-11T04:21:24;8.38;;;2.13;;
30247;SDS011;17063;50.892;4.702;2023-03-11T04:23:52;11.75;;;2.05;;
30247;SDS011;17063;50.892;4.702;2023-03-11T04:26:22;3.75;;;1.98;;
30247;SDS011;17063;50.892;4.702;2023-03-11T04:28:49;4.63;;;2.10;;
30247;SDS011;17063;50.892;4.702;2023-03-11T04:31:16;4.88;;;2.13;;
30247;SDS011;17063;50.892;4.702;2023-03-11T04:33:43;7.95;;;1.95;;
30247;SDS011;17063;50.892;4.702;2023-03-11T04:36:10;10.02;;;2.10;;
30247;SDS011;17063;50.892;4.702;2023-03-11T04:38:37;10.30;;;2.17;;
30247;SDS011;17063;50.892;4.702;2023-03-11T04:41:07;5.32;;;2.20;;
30247;SDS011;17063;50.892;4.702;2023-03-11T04:43:37;5.57;;;1.80;;
30247;SDS011;17063;50.892;4.702;2023-03-11T04:46:03;6.45;;;1.52;;
30247;SDS011;17063;50.892;4.702;2023-03-11T04:48:31;7.50;;;1.73;;
30247;SDS011;17063;50.892;4.702;2023-03-11T04:50:58;6.97;;;2.03;;
30247;SDS011;17063;50.892;4.702;2023-03-11T04:53:26;7.40;;;2.22;;
30247;SDS011;17063;50.892;4.702;2023-03-11T04:55:53;7.00;;;2.10;;
30247;SDS011;17063;50.892;4.702;2023-03-11T04:58:21;5.55;;;2.30;;
30247;SDS011;17063;50.892;4.702;2023-03-11T05:00:48;10.25;;;2.60;;
30247;SDS011;17063;50.892;4.702;2023-03-11T05:03:15;8.07;;;2.63;;
30247;SDS011;17063;50.892;4.702;2023-03-11T05:05:43;6.55;;;2.05;;
30247;SDS011;17063;50.892;4.702;2023-03-11T05:08:10;8.30;;;2.53;;
30247;SDS011;17063;50.892;4.702;2023-03-11T05:10:39;10.65;;;2.22;;
30247;SDS011;17063;50.892;4.702;2023-03-11T05:13:08;12.88;;;2.53;;
30247;SDS011;17063;50.892;4.702;2023-03-11T05:15:37;9.43;;;2.60;;
30247;SDS011;17063;50.892;4.702;2023-03-11T05:18:05;4.78;;;2.08;;
30247;SDS011;17063;50.892;4.702;2023-03-11T05:20:34;9.50;;;2.33;;
30247;SDS011;17063;50.892;4.702;2023-03-11T05:23:02;10.35;;;2.40;;
30247;SDS011;17063;50.892;4.702;2023-03-11T05:25:31;9.48;;;2.20;;
30247;SDS011;17063;50.892;4.702;2023-03-11T05:27:58;5.63;;;2.70;;
30247;SDS011;17063;50.892;4.702;2023-03-11T05:30:25;5.25;;;2.30;;
30247;SDS011;17063;50.892;4.702;2023-03-11T05:32:52;7.47;;;2.63;;
30247;SDS011;17063;50.892;4.702;2023-03-11T05:35:20;10.07;;;2.00;;
30247;SDS011;17063;50.892;4.702;2023-03-11T05:37:47;4.95;;;2.10;;
30247;SDS011;17063;50.892;4.702;2023-03-11T05:40:16;14.50;;;2.50;;
30247;SDS011;17063;50.892;4.702;2023-03-11T05:42:44;5.22;;;2.40;;
30247;SDS011;17063;50.892;4.702;2023-03-11T05:45:12;5.22;;;2.10;;
30247;SDS011;17063;50.892;4.702;2023-03-11T05:47:41;6.78;;;2.53;;
30247;SDS011;17063;50.892;4.702;2023-03-11T05:50:11;4.95;;;1.88;;
30247;SDS011;17063;50.892;4.702;2023-03-11T05:52:39;5.13;;;2.30;;
30247;SDS011;17063;50.892;4.702;2023-03-11T05:55:06;9.43;;;2.53;;
30247;SDS011;17063;50.892;4.702;2023-03-11T05:57:36;7.30;;;2.50;;
30247;SDS011;17063;50.892;4.702;2023-03-11T06:00:05;6.25;;;2.75;;
30247;SDS011;17063;50.892;4.702;2023-03-11T06:02:45;6.90;;;2.47;;
30247;SDS011;17063;50.892;4.702;2023-03-11T06:05:15;5.93;;;2.40;;
30247;SDS011;17063;50.892;4.702;2023-03-11T06:07:44;13.52;;;2.45;;
30247;SDS011;17063;50.892;4.702;2023-03-11T06:10:11;5.03;;;2.55;;
30247;SDS011;17063;50.892;4.702;2023-03-11T06:12:38;7.90;;;2.65;;
30247;SDS011;17063;50.892;4.702;2023-03-11T06:15:14;7.20;;;2.47;;
30247;SDS011;17063;50.892;4.702;2023-03-11T06:17:42;6.57;;;2.70;;
30247;SDS011;17063;50.892;4.702;2023-03-11T06:20:09;6.53;;;2.45;;
30247;SDS011;17063;50.892;4.702;2023-03-11T06:22:36;9.15;;;3.15;;
30247;SDS011;17063;50.892;4.702;2023-03-11T06:25:06;5.90;;;2.30;;
30247;SDS011;17063;50.892;4.702;2023-03-11T06:27:35;8.90;;;2.88;;
30247;SDS011;17063;50.892;4.702;2023-03-11T06:30:02;9.50;;;2.78;;
30247;SDS011;17063;50.892;4.702;2023-03-11T06:32:35;10.18;;;3.03;;
30247;SDS011;17063;50.892;4.702;2023-03-11T06:35:03;9.63;;;2.95;;
30247;SDS011;17063;50.892;4.702;2023-03-11T06:37:34;8.18;;;3.05;;
30247;SDS011;17063;50.892;4.702;2023-03-11T06:40:02;7.35;;;2.28;;
30247;SDS011;17063;50.892;4.702;2023-03-11T06:42:31;10.68;;;3.20;;
30247;SDS011;17063;50.892;4.702;2023-03-11T06:44:57;4.78;;;2.80;;
30247;SDS011;17063;50.892;4.702;2023-03-11T06:47:24;5.88;;;3.58;;
30247;SDS011;17063;50.892;4.702;2023-03-11T06:49:51;7.30;;;2.88;;
30247;SDS011;17063;50.892;4.702;2023-03-11T06:52:18;9.43;;;2.92;;
30247;SDS011;17063;50.892;4.702;2023-03-11T06:54:45;10.40;;;2.47;;
30247;SDS011;17063;50.892;4.702;2023-03-11T06:57:15;12.02;;;2.70;;
30247;SDS011;17063;50.892;4.702;2023-03-11T06:59:44;5.80;;;2.60;;
30247;SDS011;17063;50.892;4.702;2023-03-11T07:02:13;4.93;;;2.28;;
30247;SDS011;17063;50.892;4.702;2023-03-11T07:04:41;11.40;;;2.65;;
30247;SDS011;17063;50.892;4.702;2023-03-11T07:07:08;12.30;;;4.00;;
30247;SDS011;17063;50.892;4.702;2023-03-11T07:09:35;8.35;;;2.38;;
30247;SDS011;17063;50.892;4.702;2023-03-11T07:12:03;7.28;;;2.78;;
30247;SDS011;17063;50.892;4.702;2023-03-11T07:14:34;7.15;;;2.60;;
30247;SDS011;17063;50.892;4.702;2023-03-11T07:17:01;8.63;;;2.60;;
30247;SDS011;17063;50.892;4.702;2023-03-11T07:19:35;10.15;;;2.45;;
30247;SDS011;17063;50.892;4.702;2023-03-11T07:22:02;17.77;;;2.90;;
30247;SDS011;17063;50.892;4.702;2023-03-11T07:24:29;6.05;;;2.50;;
30247;SDS011;17063;50.892;4.702;2023-03-11T07:26:56;6.63;;;2.97;;
30247;SDS011;17063;50.892;4.702;2023-03-11T07:29:22;6.65;;;2.53;;
30247;SDS011;17063;50.892;4.702;2023-03-11T07:31:49;4.85;;;2.90;;
30247;SDS011;17063;50.892;4.702;2023-03-11T07:34:16;11.25;;;3.22;;
30247;SDS011;17063;50.892;4.702;2023-03-11T07:36:43;8.70;;;3.05;;
30247;SDS011;17063;50.892;4.702;2023-03-11T07:39:13;6.65;;;2.80;;
30247;SDS011;17063;50.892;4.702;2023-03-11T07:41:42;7.18;;;2.83;;
30247;SDS011;17063;50.892;4.702;2023-03-11T07:44:10;10.48;;;3.17;;
30247;SDS011;17063;50.892;4.702;2023-03-11T07:46:38;18.83;;;5.68;;
30247;SDS011;17063;50.892;4.702;2023-03-11T07:49:04;8.95;;;2.97;;
30247;SDS011;17063;50.892;4.702;2023-03-11T07:51:33;10.98;;;3.13;;
30247;SDS011;17063;50.892;4.702;2023-03-11T07:54:01;11.90;;;3.13;;
30247;SDS011;17063;50.892;4.702;2023-03-11T07:56:29;7.57;;;2.73;;
30247;SDS011;17063;50.892;4.702;2023-03-11T07:58:58;12.20;;;2.93;;
30247;SDS011;17063;50.892;4.702;2023-03-11T08:01:27;5.57;;;2.83;;
30247;SDS011;17063;50.892;4.702;2023-03-11T08:03:56;6.80;;;2.50;;
30247;SDS011;17063;50.892;4.702;2023-03-11T08:06:25;6.53;;;2.47;;
30247;SDS011;17063;50.892;4.702;2023-03-11T08:08:54;3.80;;;2.53;;
30247;SDS011;17063;50.892;4.702;2023-03-11T08:11:21;8.80;;;2.50;;
30247;SDS011;17063;50.892;4.702;2023-03-11T08:13:48;7.47;;;2.63;;
30247;SDS011;17063;50.892;4.702;2023-03-11T08:16:17;5.83;;;2.63;;
30247;SDS011;17063;50.892;4.702;2023-03-11T08:18:46;5.07;;;2.57;;
30247;SDS011;17063;50.892;4.702;2023-03-11T08:21:18;7.27;;;2.00;;
30247;SDS011;17063;50.892;4.702;2023-03-11T08:23:47;9.17;;;2.73;;
30247;SDS011;17063;50.892;4.702;2023-03-11T08:26:15;10.23;;;2.60;;
30247;SDS011;17063;50.892;4.702;2023-03-11T08:28:43;9.13;;;2.67;;
30247;SDS011;17063;50.892;4.702;2023-03-11T08:31:11;9.03;;;2.30;;
30247;SDS011;17063;50.892;4.702;2023-03-11T08:33:46;7.77;;;2.60;;
30247;SDS011;17063;50.892;4.702;2023-03-11T08:36:17;9.37;;;3.00;;
30247;SDS011;17063;50.892;4.702;2023-03-11T08:38:44;10.33;;;3.07;;
30247;SDS011;17063;50.892;4.702;2023-03-11T08:41:11;7.17;;;2.57;;
30247;SDS011;17063;50.892;4.702;2023-03-11T08:43:38;6.10;;;2.50;;
30247;SDS011;17063;50.892;4.702;2023-03-11T08:46:05;7.77;;;2.67;;
30247;SDS011;17063;50.892;4.702;2023-03-11T08:48:33;11.47;;;2.70;;
30247;SDS011;17063;50.892;4.702;2023-03-11T08:51:00;7.93;;;2.40;;
30247;SDS011;17063;50.892;4.702;2023-03-11T08:53:28;16.30;;;3.20;;
30247;SDS011;17063;50.892;4.702;2023-03-11T08:55:55;10.67;;;2.27;;
30247;SDS011;17063;50.892;4.702;2023-03-11T08:58:21;10.87;;;2.60;;
30247;SDS011;17063;50.892;4.702;2023-03-11T09:00:48;10.60;;;2.70;;
30247;SDS011;17063;50.892;4.702;2023-03-11T09:03:15;7.77;;;2.63;;
30247;SDS011;17063;50.892;4.702;2023-03-11T09:05:42;9.27;;;2.33;;
30247;SDS011;17063;50.892;4.702;2023-03-11T09:08:08;7.60;;;2.10;;
30247;SDS011;17063;50.892;4.702;2023-03-11T09:10:35;8.93;;;2.27;;
30247;SDS011;17063;50.892;4.702;2023-03-11T09:13:02;11.13;;;2.83;;
30247;SDS011;17063;50.892;4.702;2023-03-11T09:15:29;6.20;;;2.40;;
30247;SDS011;17063;50.892;4.702;2023-03-11T09:17:55;6.27;;;2.20;;
30247;SDS011;17063;50.892;4.702;2023-03-11T09:20:22;6.67;;;2.13;;
30247;SDS011;17063;50.892;4.702;2023-03-11T09:22:49;11.20;;;1.80;;
30247;SDS011;17063;50.892;4.702;2023-03-11T09:25:16;8.50;;;1.30;;
30247;SDS011;17063;50.892;4.702;2023-03-11T09:27:43;4.90;;;1.83;;
30247;SDS011;17063;50.892;4.702;2023-03-11T09:30:09;7.00;;;1.40;;
30247;SDS011;17063;50.892;4.702;2023-03-11T09:32:37;6.13;;;1.37;;
30247;SDS011;17063;50.892;4.702;2023-03-11T09:35:04;2.10;;;1.07;;
30247;SDS011;17063;50.892;4.702;2023-03-11T09:37:31;6.40;;;1.30;;
30247;SDS011;17063;50.892;4.702;2023-03-11T09:39:58;2.93;;;1.07;;
30247;SDS011;17063;50.892;4.702;2023-03-11T09:42:40;2.80;;;0.90;;
30247;SDS011;17063;50.892;4.702;2023-03-11T09:48:31;4.03;;;1.37;;
30247;SDS011;17063;50.892;4.702;2023-03-11T09:51:09;3.80;;;1.03;;
30247;SDS011;17063;50.892;4.702;2023-03-11T09:53:48;4.20;;;0.97;;
30247;SDS011;17063;50.892;4.702;2023-03-11T09:56:20;12.97;;;1.30;;
30247;SDS011;17063;50.892;4.702;2023-03-11T09:58:49;8.47;;;1.10;;
30247;SDS011;17063;50.892;4.702;2023-03-11T10:04:22;2.83;;;1.00;;
30247;SDS011;17063;50.892;4.702;2023-03-11T10:06:51;3.97;;;0.90;;
30247;SDS011;17063;50.892;4.702;2023-03-11T10:24:10;3.00;;;1.07;;
30247;SDS011;17063;50.892;4.702;2023-03-11T10:26:42;5.30;;;0.90;;
30247;SDS011;17063;50.892;4.702;2023-03-11T10:29:26;2.60;;;0.87;;
30247;SDS011;17063;50.892;4.702;2023-03-11T10:31:59;2.50;;;0.90;;
30247;SDS011;17063;50.892;4.702;2023-03-11T10:34:36;2.70;;;0.83;;
30247;SDS011;17063;50.892;4.702;2023-03-11T10:37:10;3.40;;;0.83;;
30247;SDS011;17063;50.892;4.702;2023-03-11T10:39:42;4.00;;;0.80;;
30247;SDS011;17063;50.892;4.702;2023-03-11T10:42:24;3.93;;;0.80;;
30247;SDS011;17063;50.892;4.702;2023-03-11T10:44:59;3.93;;;1.07;;
30247;SDS011;17063;50.892;4.702;2023-03-11T10:47:42;2.23;;;0.90;;
30247;SDS011;17063;50.892;4.702;2023-03-11T10:50:26;8.53;;;1.27;;
30247;SDS011;17063;50.892;4.702;2023-03-11T10:53:09;4.43;;;1.00;;
30247;SDS011;17063;50.892;4.702;2023-03-11T10:55:47;3.43;;;1.13;;
30247;SDS011;17063;50.892;4.702;2023-03-11T10:58:19;5.37;;;1.37;;
30247;SDS011;17063;50.892;4.702;2023-03-11T11:03:33;5.53;;;1.53;;
30247;SDS011;17063;50.892;4.702;2023-03-11T11:06:04;3.27;;;1.10;;
30247;SDS011;17063;50.892;4.702;2023-03-11T11:08:33;4.17;;;1.10;;
30247;SDS011;17063;50.892;4.702;2023-03-11T11:11:02;4.43;;;1.10;;
30247;SDS011;17063;50.892;4.702;2023-03-11T11:13:41;2.83;;;1.10;;
30247;SDS011;17063;50.892;4.702;2023-03-11T11:16:25;5.03;;;1.00;;
30247;SDS011;17063;50.892;4.702;2023-03-11T11:19:07;7.13;;;1.30;;
30247;SDS011;17063;50.892;4.702;2023-03-11T11:21:52;7.87;;;0.90;;
30247;SDS011;17063;50.892;4.702;2023-03-11T11:24:29;2.60;;;1.00;;
30247;SDS011;17063;50.892;4.702;2023-03-11T11:27:05;3.00;;;1.07;;
30247;SDS011;17063;50.892;4.702;2023-03-11T11:29:38;2.27;;;1.00;;
30247;SDS011;17063;50.892;4.702;2023-03-11T11:32:24;2.63;;;0.93;;
30247;SDS011;17063;50.892;4.702;2023-03-11T11:34:53;5.90;;;1.17;;
30247;SDS011;17063;50.892;4.702;2023-03-11T11:37:26;8.47;;;1.10;;
30247;SDS011;17063;50.892;4.702;2023-03-11T11:39:59;2.20;;;1.10;;
30247;SDS011;17063;50.892;4.702;2023-03-11T11:42:32;4.23;;;1.30;;
30247;SDS011;17063;50.892;4.702;2023-03-11T11:45:01;5.63;;;1.47;;
30247;SDS011;17063;50.892;4.702;2023-03-11T11:47:45;3.30;;;0.90;;
30247;SDS011;17063;50.892;4.702;2023-03-11T11:50:34;3.97;;;1.30;;
30247;SDS011;17063;50.892;4.702;2023-03-11T11:53:23;4.63;;;1.30;;
30247;SDS011;17063;50.892;4.702;2023-03-11T11:55:57;5.67;;;1.33;;
30247;SDS011;17063;50.892;4.702;2023-03-11T11:58:24;6.97;;;1.20;;
30247;SDS011;17063;50.892;4.702;2023-03-11T12:09:16;4.97;;;0.90;;
30247;SDS011;17063;50.892;4.702;2023-03-11T12:11:55;10.30;;;1.40;;
30247;SDS011;17063;50.892;4.702;2023-03-11T12:14:45;3.13;;;0.90;;
30247;SDS011;17063;50.892;4.702;2023-03-11T12:17:27;2.40;;;1.63;;
30247;SDS011;17063;50.892;4.702;2023-03-11T12:20:02;3.90;;;1.10;;
30247;SDS011;17063;50.892;4.702;2023-03-11T12:23:00;5.87;;;0.93;;
30247;SDS011;17063;50.892;4.702;2023-03-11T12:28:37;2.03;;;0.97;;
30247;SDS011;17063;50.892;4.702;2023-03-11T12:31:15;7.40;;;1.20;;
30247;SDS011;17063;50.892;4.702;2023-03-11T12:33:49;4.57;;;1.23;;
30247;SDS011;17063;50.892;4.702;2023-03-11T12:36:23;3.43;;;1.07;;
30247;SDS011;17063;50.892;4.702;2023-03-11T12:39:01;1.40;;;0.90;;
30247;SDS011;17063;50.892;4.702;2023-03-11T12:44:27;3.63;;;1.03;;
30247;SDS011;17063;50.892;4.702;2023-03-11T12:49:37;6.87;;;1.50;;
30247;SDS011;17063;50.892;4.702;2023-03-11T12:52:51;5.17;;;1.20;;
30247;SDS011;17063;50.892;4.702;2023-03-11T12:55:29;1.93;;;0.90;;
30247;SDS011;17063;50.892;4.702;2023-03-11T12:58:12;4.27;;;1.00;;
30247;SDS011;17063;50.892;4.702;2023-03-11T13:01:14;2.33;;;0.90;;
30247;SDS011;17063;50.892;4.702;2023-03-11T13:03:52;4.20;;;1.30;;
30247;SDS011;17063;50.892;4.702;2023-03-11T13:06:41;1.80;;;1.27;;
30247;SDS011;17063;50.892;4.702;2023-03-11T13:09:14;4.20;;;1.53;;
30247;SDS011;17063;50.892;4.702;2023-03-11T13:11:45;4.10;;;0.90;;
30247;SDS011;17063;50.892;4.702;2023-03-11T13:16:40;4.07;;;1.00;;
30247;SDS011;17063;50.892;4.702;2023-03-11T13:22:01;5.50;;;1.07;;
30247;SDS011;17063;50.892;4.702;2023-03-11T13:27:04;4.33;;;0.70;;
30247;SDS011;17063;50.892;4.702;2023-03-11T13:41:30;4.83;;;0.93;;
30247;SDS011;17063;50.892;4.702;2023-03-11T13:44:09;4.10;;;0.83;;
30247;SDS011;17063;50.892;4.702;2023-03-11T13:46:39;3.10;;;0.70;;
30247;SDS011;17063;50.892;4.702;2023-03-11T13:49:12;3.17;;;1.07;;
30247;SDS011;17063;50.892;4.702;2023-03-11T13:51:42;2.00;;;1.03;;
30247;SDS011;17063;50.892;4.702;2023-03-11T13:56:47;4.63;;;0.90;;
30247;SDS011;17063;50.892;4.702;2023-03-11T14:01:53;4.80;;;0.93;;
30247;SDS011;17063;50.892;4.702;2023-03-11T14:04:32;3.60;;;0.80;;
30247;SDS011;17063;50.892;4.702;2023-03-11T14:07:11;4.17;;;1.17;;
30247;SDS011;17063;50.892;4.702;2023-03-11T14:09:45;2.97;;;1.07;;
30247;SDS011;17063;50.892;4.702;2023-03-11T14:12:13;2.43;;;0.90;;
30247;SDS011;17063;50.892;4.702;2023-03-11T14:14:45;3.00;;;0.77;;
30247;SDS011;17063;50.892;4.702;2023-03-11T14:17:15;1.10;;;1.00;;
30247;SDS011;17063;50.892;4.702;2023-03-11T14:19:43;3.37;;;0.90;;
30247;SDS011;17063;50.892;4.702;2023-03-11T14:22:30;1.77;;;0.90;;
30247;SDS011;17063;50.892;4.702;2023-03-11T14:25:06;2.77;;;1.00;;
30247;SDS011;17063;50.892;4.702;2023-03-11T14:27:34;2.07;;;0.80;;
30247;SDS011;17063;50.892;4.702;2023-03-11T14:30:03;7.03;;;0.97;;
30247;SDS011;17063;50.892;4.702;2023-03-11T14:32:34;4.53;;;0.83;;
30247;SDS011;17063;50.892;4.702;2023-03-11T14:35:34;6.03;;;0.80;;
30247;SDS011;17063;50.892;4.702;2023-03-11T14:38:23;2.03;;;0.80;;
30247;SDS011;17063;50.892;4.702;2023-03-11T14:40:58;3.13;;;0.80;;
30247;SDS011;17063;50.892;4.702;2023-03-11T14:43:27;5.63;;;1.10;;
30247;SDS011;17063;50.892;4.702;2023-03-11T14:45:57;2.97;;;0.80;;
30247;SDS011;17063;50.892;4.702;2023-03-11T14:50:56;1.93;;;0.80;;
30247;SDS011;17063;50.892;4.702;2023-03-11T14:53:28;4.57;;;1.17;;
30247;SDS011;17063;50.892;4.702;2023-03-11T14:59:01;4.63;;;1.03;;
30247;SDS011;17063;50.892;4.702;2023-03-11T15:01:44;3.27;;;1.20;;
30247;SDS011;17063;50.892;4.702;2023-03-11T15:05:00;8.13;;;1.83;;
30247;SDS011;17063;50.892;4.702;2023-03-11T15:07:57;5.20;;;1.10;;
30247;SDS011;17063;50.892;4.702;2023-03-11T15:10:46;2.60;;;1.13;;
30247;SDS011;17063;50.892;4.702;2023-03-11T15:13:32;3.20;;;0.90;;
30247;SDS011;17063;50.892;4.702;2023-03-11T15:16:00;3.73;;;0.87;;
30247;SDS011;17063;50.892;4.702;2023-03-11T15:18:30;5.30;;;1.00;;
30247;SDS011;17063;50.892;4.702;2023-03-11T15:23:32;4.50;;;0.93;;
30247;SDS011;17063;50.892;4.702;2023-03-11T15:26:00;2.70;;;1.07;;
30247;SDS011;17063;50.892;4.702;2023-03-11T15:28:35;4.97;;;1.47;;
30247;SDS011;17063;50.892;4.702;2023-03-11T15:47:13;5.60;;;1.00;;
30247;SDS011;17063;50.892;4.702;2023-03-11T15:49:41;4.17;;;1.10;;
30247;SDS011;17063;50.892;4.702;2023-03-11T15:52:11;5.40;;;0.97;;
30247;SDS011;17063;50.892;4.702;2023-03-11T15:54:39;4.80;;;1.70;;
30247;SDS011;17063;50.892;4.702;2023-03-11T15:57:20;6.13;;;1.40;;
30247;SDS011;17063;50.892;4.702;2023-03-11T15:59:53;3.37;;;2.00;;
30247;SDS011;17063;50.892;4.702;2023-03-11T16:02:31;5.50;;;1.47;;
30247;SDS011;17063;50.892;4.702;2023-03-11T16:05:05;5.10;;;0.73;;
30247;SDS011;17063;50.892;4.702;2023-03-11T16:07:53;2.37;;;1.07;;
30247;SDS011;17063;50.892;4.702;2023-03-11T16:10:48;4.50;;;1.67;;
30247;SDS011;17063;50.892;4.702;2023-03-11T16:13:48;3.60;;;1.10;;
30247;SDS011;17063;50.892;4.702;2023-03-11T16:16:28;3.10;;;1.30;;
30247;SDS011;17063;50.892;4.702;2023-03-11T16:18:55;4.97;;;1.13;;
30247;SDS011;17063;50.892;4.702;2023-03-11T16:21:24;5.10;;;1.23;;
30247;SDS011;17063;50.892;4.702;2023-03-11T16:24:04;1.77;;;1.00;;
30247;SDS011;17063;50.892;4.702;2023-03-11T16:26:34;5.20;;;1.30;;
30247;SDS011;17063;50.892;4.702;2023-03-11T16:29:11;3.80;;;1.30;;
30247;SDS011;17063;50.892;4.702;2023-03-11T16:31:46;4.93;;;1.30;;
30247;SDS011;17063;50.892;4.702;2023-03-11T16:34:38;6.27;;;1.30;;
30247;SDS011;17063;50.892;4.702;2023-03-11T16:37:20;2.50;;;1.10;;
30247;SDS011;17063;50.892;4.702;2023-03-11T16:40:32;4.90;;;1.17;;
30247;SDS011;17063;50.892;4.702;2023-03-11T16:43:18;2.90;;;1.03;;
30247;SDS011;17063;50.892;4.702;2023-03-11T16:45:56;4.63;;;1.13;;
30247;SDS011;17063;50.892;4.702;2023-03-11T16:48:25;3.43;;;1.17;;